sensor_id;sensor_type;location;lat;lon;timestamp;P1;durP1;ratioP1;P2;durP2;ratioP2
67585;SDS011;55785;47.946;20.540;2023-06-04T00:01:08;2.53;;;0.90;;
67585;SDS011;55785;47.946;20.540;2023-06-04T00:03:33;2.05;;;0.90;;
67585;SDS011;55785;47.946;20.540;2023-06-04T00:05:59;1.48;;;0.88;;
67585;SDS011;55785;47.946;20.540;2023-06-04T00:08:27;3.15;;;1.08;;
67585;SDS011;55785;47.946;20.540;2023-06-04T00:10:53;2.53;;;1.10;;
67585;SDS011;55785;47.946;20.540;2023-06-04T00:13:18;1.52;;;0.90;;
67585;SDS011;55785;47.946;20.540;2023-06-04T00:15:43;3.25;;;0.90;;
67585;SDS011;55785;47.946;20.540;2023-06-04T00:18:09;1.92;;;0.95;;
67585;SDS011;55785;47.946;20.540;2023-06-04T00:20:35;1.73;;;0.85;;
67585;SDS011;55785;47.946;20.540;2023-06-04T00:23:03;1.70;;;1.08;;
67585;SDS011;55785;47.946;20.540;2023-06-04T00:25:29;3.03;;;0.90;;
67585;SDS011;55785;47.946;20.540;2023-06-04T00:27:54;2.95;;;1.00;;
67585;SDS011;55785;47.946;20.540;2023-06-04T00:30:20;2.35;;;0.88;;
67585;SDS011;55785;47.946;20.540;2023-06-04T00:32:45;1.45;;;0.85;;
67585;SDS011;55785;47.946;20.540;2023-06-04T00:35:10;2.65;;;0.85;;
67585;SDS011;55785;47.946;20.540;2023-06-04T00:37:36;4.00;;;1.30;;
67585;SDS011;55785;47.946;20.540;2023-06-04T00:40:01;3.25;;;1.40;;
67585;SDS011;55785;47.946;20.540;2023-06-04T00:42:27;2.80;;;1.60;;
67585;SDS011;55785;47.946;20.540;2023-06-04T00:44:52;2.90;;;1.20;;
67585;SDS011;55785;47.946;20.540;2023-06-04T00:47:18;3.22;;;1.25;;
67585;SDS011;55785;47.946;20.540;2023-06-04T00:49:45;1.75;;;0.93;;
67585;SDS011;55785;47.946;20.540;2023-06-04T00:52:12;2.13;;;1.15;;
67585;SDS011;55785;47.946;20.540;2023-06-04T00:54:39;3.55;;;1.00;;
67585;SDS011;55785;47.946;20.540;2023-06-04T00:57:04;2.15;;;0.82;;
67585;SDS011;55785;47.946;20.540;2023-06-04T00:59:30;1.95;;;1.05;;
67585;SDS011;55785;47.946;20.540;2023-06-04T01:02:06;2.55;;;0.77;;
67585;SDS011;55785;47.946;20.540;2023-06-04T01:04:54;2.47;;;1.00;;
67585;SDS011;55785;47.946;20.540;2023-06-04T01:07:21;3.27;;;0.97;;
67585;SDS011;55785;47.946;20.540;2023-06-04T01:09:47;3.60;;;1.03;;
67585;SDS011;55785;47.946;20.540;2023-06-04T01:12:12;1.87;;;0.90;;
67585;SDS011;55785;47.946;20.540;2023-06-04T01:14:38;1.53;;;0.83;;
67585;SDS011;55785;47.946;20.540;2023-06-04T01:17:17;1.73;;;0.77;;
67585;SDS011;55785;47.946;20.540;2023-06-04T01:20:12;3.80;;;1.10;;
67585;SDS011;55785;47.946;20.540;2023-06-04T01:22:56;2.03;;;0.80;;
67585;SDS011;55785;47.946;20.540;2023-06-04T01:25:33;1.40;;;0.93;;
67585;SDS011;55785;47.946;20.540;2023-06-04T01:32:59;1.20;;;0.93;;
67585;SDS011;55785;47.946;20.540;2023-06-04T01:35:26;1.60;;;0.90;;
67585;SDS011;55785;47.946;20.540;2023-06-04T01:37:52;1.98;;;0.90;;
67585;SDS011;55785;47.946;20.540;2023-06-04T01:40:18;3.90;;;0.77;;
67585;SDS011;55785;47.946;20.540;2023-06-04T01:42:43;2.58;;;0.80;;
67585;SDS011;55785;47.946;20.540;2023-06-04T01:45:09;5.05;;;0.90;;
67585;SDS011;55785;47.946;20.540;2023-06-04T01:47:35;1.90;;;1.08;;
67585;SDS011;55785;47.946;20.540;2023-06-04T01:50:01;1.02;;;0.80;;
67585;SDS011;55785;47.946;20.540;2023-06-04T01:52:30;5.15;;;1.00;;
67585;SDS011;55785;47.946;20.540;2023-06-04T01:54:55;2.00;;;1.13;;
67585;SDS011;55785;47.946;20.540;2023-06-04T01:57:21;1.95;;;0.77;;
67585;SDS011;55785;47.946;20.540;2023-06-04T01:59:47;1.48;;;0.80;;
67585;SDS011;55785;47.946;20.540;2023-06-04T02:02:13;3.15;;;0.90;;
67585;SDS011;55785;47.946;20.540;2023-06-04T02:04:39;2.60;;;0.98;;
67585;SDS011;55785;47.946;20.540;2023-06-04T02:07:04;4.10;;;1.00;;
67585;SDS011;55785;47.946;20.540;2023-06-04T02:09:30;5.15;;;1.10;;
67585;SDS011;55785;47.946;20.540;2023-06-04T02:11:55;1.92;;;0.80;;
67585;SDS011;55785;47.946;20.540;2023-06-04T02:14:20;4.40;;;1.00;;
67585;SDS011;55785;47.946;20.540;2023-06-04T02:16:46;1.87;;;1.00;;
67585;SDS011;55785;47.946;20.540;2023-06-04T02:19:11;2.00;;;1.07;;
67585;SDS011;55785;47.946;20.540;2023-06-04T02:21:36;2.33;;;0.93;;
67585;SDS011;55785;47.946;20.540;2023-06-04T02:24:02;3.30;;;0.90;;
67585;SDS011;55785;47.946;20.540;2023-06-04T02:26:27;1.30;;;0.90;;
67585;SDS011;55785;47.946;20.540;2023-06-04T02:28:52;2.55;;;0.90;;
67585;SDS011;55785;47.946;20.540;2023-06-04T02:31:18;3.73;;;1.00;;
67585;SDS011;55785;47.946;20.540;2023-06-04T02:33:43;1.93;;;0.90;;
67585;SDS011;55785;47.946;20.540;2023-06-04T02:36:08;2.03;;;0.90;;
67585;SDS011;55785;47.946;20.540;2023-06-04T02:38:34;7.03;;;1.20;;
67585;SDS011;55785;47.946;20.540;2023-06-04T02:40:59;0.90;;;0.80;;
67585;SDS011;55785;47.946;20.540;2023-06-04T02:43:25;3.17;;;1.10;;
67585;SDS011;55785;47.946;20.540;2023-06-04T02:45:50;2.43;;;1.07;;
67585;SDS011;55785;47.946;20.540;2023-06-04T02:48:15;4.53;;;0.97;;
67585;SDS011;55785;47.946;20.540;2023-06-04T02:50:41;2.50;;;1.20;;
67585;SDS011;55785;47.946;20.540;2023-06-04T02:53:06;6.47;;;1.70;;
67585;SDS011;55785;47.946;20.540;2023-06-04T02:55:32;3.60;;;1.13;;
67585;SDS011;55785;47.946;20.540;2023-06-04T02:57:57;2.60;;;1.00;;
67585;SDS011;55785;47.946;20.540;2023-06-04T03:00:22;2.07;;;1.17;;
67585;SDS011;55785;47.946;20.540;2023-06-04T03:02:48;3.47;;;1.30;;
67585;SDS011;55785;47.946;20.540;2023-06-04T03:05:14;3.53;;;1.47;;
67585;SDS011;55785;47.946;20.540;2023-06-04T03:07:41;7.93;;;1.67;;
67585;SDS011;55785;47.946;20.540;2023-06-04T03:10:07;5.13;;;1.23;;
67585;SDS011;55785;47.946;20.540;2023-06-04T03:12:33;3.80;;;1.23;;
67585;SDS011;55785;47.946;20.540;2023-06-04T03:14:58;2.33;;;1.13;;
67585;SDS011;55785;47.946;20.540;2023-06-04T03:17:25;4.37;;;1.30;;
67585;SDS011;55785;47.946;20.540;2023-06-04T03:19:51;3.60;;;1.43;;
67585;SDS011;55785;47.946;20.540;2023-06-04T03:22:16;3.77;;;1.43;;
67585;SDS011;55785;47.946;20.540;2023-06-04T03:24:41;2.67;;;1.10;;
67585;SDS011;55785;47.946;20.540;2023-06-04T03:27:08;3.40;;;1.80;;
67585;SDS011;55785;47.946;20.540;2023-06-04T03:29:34;3.83;;;1.37;;
67585;SDS011;55785;47.946;20.540;2023-06-04T03:32:00;7.67;;;1.60;;
67585;SDS011;55785;47.946;20.540;2023-06-04T03:34:26;4.73;;;1.37;;
67585;SDS011;55785;47.946;20.540;2023-06-04T03:36:52;1.90;;;1.10;;
67585;SDS011;55785;47.946;20.540;2023-06-04T03:39:18;2.73;;;1.00;;
67585;SDS011;55785;47.946;20.540;2023-06-04T03:41:44;3.73;;;1.37;;
67585;SDS011;55785;47.946;20.540;2023-06-04T03:44:09;3.40;;;1.20;;
67585;SDS011;55785;47.946;20.540;2023-06-04T03:46:34;4.30;;;1.17;;
67585;SDS011;55785;47.946;20.540;2023-06-04T03:49:00;2.03;;;1.20;;
67585;SDS011;55785;47.946;20.540;2023-06-04T03:51:26;3.77;;;0.90;;
67585;SDS011;55785;47.946;20.540;2023-06-04T03:53:52;2.10;;;1.00;;
67585;SDS011;55785;47.946;20.540;2023-06-04T03:56:17;4.83;;;1.30;;
67585;SDS011;55785;47.946;20.540;2023-06-04T03:58:42;2.50;;;1.10;;
67585;SDS011;55785;47.946;20.540;2023-06-04T04:01:08;3.83;;;1.10;;
67585;SDS011;55785;47.946;20.540;2023-06-04T04:03:33;2.90;;;1.30;;
67585;SDS011;55785;47.946;20.540;2023-06-04T04:05:59;2.20;;;1.10;;
67585;SDS011;55785;47.946;20.540;2023-06-04T04:08:24;3.33;;;0.93;;
67585;SDS011;55785;47.946;20.540;2023-06-04T04:10:49;3.92;;;1.30;;
67585;SDS011;55785;47.946;20.540;2023-06-04T04:13:15;4.60;;;1.40;;
67585;SDS011;55785;47.946;20.540;2023-06-04T04:15:40;2.85;;;1.50;;
67585;SDS011;55785;47.946;20.540;2023-06-04T04:18:06;2.30;;;1.08;;
67585;SDS011;55785;47.946;20.540;2023-06-04T04:20:31;2.92;;;1.00;;
67585;SDS011;55785;47.946;20.540;2023-06-04T04:22:56;3.15;;;1.05;;
67585;SDS011;55785;47.946;20.540;2023-06-04T04:25:22;2.33;;;0.80;;
67585;SDS011;55785;47.946;20.540;2023-06-04T04:27:47;4.28;;;1.00;;
67585;SDS011;55785;47.946;20.540;2023-06-04T04:30:12;2.10;;;0.90;;
67585;SDS011;55785;47.946;20.540;2023-06-04T04:32:38;2.20;;;1.00;;
67585;SDS011;55785;47.946;20.540;2023-06-04T04:35:03;1.45;;;0.80;;
67585;SDS011;55785;47.946;20.540;2023-06-04T04:37:29;1.55;;;0.95;;
67585;SDS011;55785;47.946;20.540;2023-06-04T04:39:54;1.55;;;0.88;;
67585;SDS011;55785;47.946;20.540;2023-06-04T04:42:20;1.67;;;0.80;;
67585;SDS011;55785;47.946;20.540;2023-06-04T04:44:45;1.30;;;0.90;;
67585;SDS011;55785;47.946;20.540;2023-06-04T04:47:10;5.25;;;1.10;;
67585;SDS011;55785;47.946;20.540;2023-06-04T04:49:36;2.17;;;0.90;;
67585;SDS011;55785;47.946;20.540;2023-06-04T04:52:01;3.42;;;0.90;;
67585;SDS011;55785;47.946;20.540;2023-06-04T04:54:26;2.17;;;0.90;;
67585;SDS011;55785;47.946;20.540;2023-06-04T04:56:52;2.45;;;1.13;;
67585;SDS011;55785;47.946;20.540;2023-06-04T04:59:17;1.70;;;0.90;;
67585;SDS011;55785;47.946;20.540;2023-06-04T05:01:43;2.55;;;0.88;;
67585;SDS011;55785;47.946;20.540;2023-06-04T05:04:08;2.10;;;0.80;;
67585;SDS011;55785;47.946;20.540;2023-06-04T05:06:33;1.90;;;0.82;;
67585;SDS011;55785;47.946;20.540;2023-06-04T05:08:59;1.38;;;0.88;;
67585;SDS011;55785;47.946;20.540;2023-06-04T05:11:24;2.53;;;1.00;;
67585;SDS011;55785;47.946;20.540;2023-06-04T05:13:49;2.17;;;0.80;;
67585;SDS011;55785;47.946;20.540;2023-06-04T05:16:15;4.90;;;1.08;;
67585;SDS011;55785;47.946;20.540;2023-06-04T05:18:41;4.80;;;0.85;;
67585;SDS011;55785;47.946;20.540;2023-06-04T05:21:06;5.15;;;1.10;;
67585;SDS011;55785;47.946;20.540;2023-06-04T05:23:32;5.18;;;1.00;;
67585;SDS011;55785;47.946;20.540;2023-06-04T05:25:58;2.63;;;0.93;;
67585;SDS011;55785;47.946;20.540;2023-06-04T05:28:23;2.40;;;0.90;;
67585;SDS011;55785;47.946;20.540;2023-06-04T05:30:49;1.25;;;0.80;;
67585;SDS011;55785;47.946;20.540;2023-06-04T05:33:14;3.60;;;1.02;;
67585;SDS011;55785;47.946;20.540;2023-06-04T05:35:39;1.38;;;0.80;;
67585;SDS011;55785;47.946;20.540;2023-06-04T05:38:05;1.38;;;0.80;;
67585;SDS011;55785;47.946;20.540;2023-06-04T05:40:30;1.35;;;0.90;;
67585;SDS011;55785;47.946;20.540;2023-06-04T05:42:56;1.85;;;0.90;;
67585;SDS011;55785;47.946;20.540;2023-06-04T05:45:21;2.38;;;0.80;;
67585;SDS011;55785;47.946;20.540;2023-06-04T05:47:46;1.40;;;0.90;;
67585;SDS011;55785;47.946;20.540;2023-06-04T05:50:12;1.30;;;0.80;;
67585;SDS011;55785;47.946;20.540;2023-06-04T05:52:37;2.20;;;0.80;;
67585;SDS011;55785;47.946;20.540;2023-06-04T05:55:02;2.95;;;1.00;;
67585;SDS011;55785;47.946;20.540;2023-06-04T05:57:28;3.17;;;1.00;;
67585;SDS011;55785;47.946;20.540;2023-06-04T05:59:53;2.95;;;1.00;;
67585;SDS011;55785;47.946;20.540;2023-06-04T06:02:19;1.63;;;0.77;;
67585;SDS011;55785;47.946;20.540;2023-06-04T06:04:44;1.90;;;0.80;;
67585;SDS011;55785;47.946;20.540;2023-06-04T06:07:09;1.08;;;0.80;;
67585;SDS011;55785;47.946;20.540;2023-06-04T06:09:35;2.25;;;0.80;;
67585;SDS011;55785;47.946;20.540;2023-06-04T06:12:00;1.50;;;0.85;;
67585;SDS011;55785;47.946;20.540;2023-06-04T06:14:26;3.08;;;1.10;;
67585;SDS011;55785;47.946;20.540;2023-06-04T06:22:45;3.10;;;0.95;;
67585;SDS011;55785;47.946;20.540;2023-06-04T06:28:07;2.70;;;0.82;;
67585;SDS011;55785;47.946;20.540;2023-06-04T06:31:06;3.60;;;0.88;;
67585;SDS011;55785;47.946;20.540;2023-06-04T06:33:30;2.60;;;0.90;;
67585;SDS011;55785;47.946;20.540;2023-06-04T06:45:12;2.88;;;0.80;;
67585;SDS011;55785;47.946;20.540;2023-06-04T06:50:49;2.13;;;0.90;;
67585;SDS011;55785;47.946;20.540;2023-06-04T06:53:24;1.98;;;0.80;;
67585;SDS011;55785;47.946;20.540;2023-06-04T06:55:52;1.25;;;0.80;;
67585;SDS011;55785;47.946;20.540;2023-06-04T07:07:42;5.07;;;0.98;;
67585;SDS011;55785;47.946;20.540;2023-06-04T07:10:27;1.27;;;0.80;;
67585;SDS011;55785;47.946;20.540;2023-06-04T07:12:58;2.33;;;0.80;;
67585;SDS011;55785;47.946;20.540;2023-06-04T07:15:24;4.40;;;0.82;;
67585;SDS011;55785;47.946;20.540;2023-06-04T07:23:54;3.13;;;1.00;;
67585;SDS011;55785;47.946;20.540;2023-06-04T07:26:19;2.63;;;0.98;;
67585;SDS011;55785;47.946;20.540;2023-06-04T07:28:45;2.38;;;1.10;;
67585;SDS011;55785;47.946;20.540;2023-06-04T07:31:14;2.15;;;0.95;;
67585;SDS011;55785;47.946;20.540;2023-06-04T07:33:40;2.83;;;1.00;;
67585;SDS011;55785;47.946;20.540;2023-06-04T07:36:21;1.73;;;1.00;;
67585;SDS011;55785;47.946;20.540;2023-06-04T07:39:58;3.45;;;1.00;;
67585;SDS011;55785;47.946;20.540;2023-06-04T07:42:31;2.13;;;1.00;;
67585;SDS011;55785;47.946;20.540;2023-06-04T07:45:15;2.83;;;1.10;;
67585;SDS011;55785;47.946;20.540;2023-06-04T07:47:42;2.40;;;1.10;;
67585;SDS011;55785;47.946;20.540;2023-06-04T07:50:08;1.63;;;0.85;;
67585;SDS011;55785;47.946;20.540;2023-06-04T07:52:33;2.40;;;1.02;;
67585;SDS011;55785;47.946;20.540;2023-06-04T07:55:13;3.20;;;1.10;;
67585;SDS011;55785;47.946;20.540;2023-06-04T07:57:49;2.30;;;1.10;;
67585;SDS011;55785;47.946;20.540;2023-06-04T08:03:45;4.30;;;1.05;;
67585;SDS011;55785;47.946;20.540;2023-06-04T08:06:10;1.83;;;1.08;;
67585;SDS011;55785;47.946;20.540;2023-06-04T08:08:35;1.60;;;0.88;;
67585;SDS011;55785;47.946;20.540;2023-06-04T08:11:01;1.98;;;1.00;;
67585;SDS011;55785;47.946;20.540;2023-06-04T08:13:26;1.88;;;1.08;;
67585;SDS011;55785;47.946;20.540;2023-06-04T08:15:52;1.35;;;0.88;;
67585;SDS011;55785;47.946;20.540;2023-06-04T08:18:17;3.80;;;0.98;;
67585;SDS011;55785;47.946;20.540;2023-06-04T08:20:42;3.42;;;1.02;;
67585;SDS011;55785;47.946;20.540;2023-06-04T08:23:08;1.83;;;0.90;;
67585;SDS011;55785;47.946;20.540;2023-06-04T08:25:33;1.80;;;1.10;;
67585;SDS011;55785;47.946;20.540;2023-06-04T08:27:58;3.22;;;1.10;;
67585;SDS011;55785;47.946;20.540;2023-06-04T08:30:24;1.60;;;0.90;;
67585;SDS011;55785;47.946;20.540;2023-06-04T08:32:50;1.88;;;0.82;;
67585;SDS011;55785;47.946;20.540;2023-06-04T08:35:15;2.55;;;1.10;;
67585;SDS011;55785;47.946;20.540;2023-06-04T08:37:40;1.80;;;1.00;;
67585;SDS011;55785;47.946;20.540;2023-06-04T08:40:06;3.83;;;0.93;;
67585;SDS011;55785;47.946;20.540;2023-06-04T08:42:34;1.92;;;0.90;;
67585;SDS011;55785;47.946;20.540;2023-06-04T08:45:05;2.63;;;1.00;;
67585;SDS011;55785;47.946;20.540;2023-06-04T08:47:35;1.88;;;1.00;;
67585;SDS011;55785;47.946;20.540;2023-06-04T08:50:02;1.73;;;0.90;;
67585;SDS011;55785;47.946;20.540;2023-06-04T08:52:31;1.50;;;1.00;;
67585;SDS011;55785;47.946;20.540;2023-06-04T08:54:57;1.83;;;1.00;;
67585;SDS011;55785;47.946;20.540;2023-06-04T08:57:23;2.47;;;1.10;;
67585;SDS011;55785;47.946;20.540;2023-06-04T08:59:49;2.10;;;1.00;;
67585;SDS011;55785;47.946;20.540;2023-06-04T09:02:15;1.98;;;0.98;;
67585;SDS011;55785;47.946;20.540;2023-06-04T09:04:41;1.67;;;1.00;;
67585;SDS011;55785;47.946;20.540;2023-06-04T09:07:07;1.70;;;1.10;;
67585;SDS011;55785;47.946;20.540;2023-06-04T09:09:37;1.80;;;1.10;;
67585;SDS011;55785;47.946;20.540;2023-06-04T09:12:04;2.58;;;1.10;;
67585;SDS011;55785;47.946;20.540;2023-06-04T09:14:32;1.70;;;1.10;;
67585;SDS011;55785;47.946;20.540;2023-06-04T09:16:58;2.92;;;1.00;;
67585;SDS011;55785;47.946;20.540;2023-06-04T09:19:28;2.70;;;1.10;;
67585;SDS011;55785;47.946;20.540;2023-06-04T09:22:00;3.53;;;1.10;;
67585;SDS011;55785;47.946;20.540;2023-06-04T09:24:38;2.88;;;1.15;;
67585;SDS011;55785;47.946;20.540;2023-06-04T09:27:14;1.23;;;1.00;;
67585;SDS011;55785;47.946;20.540;2023-06-04T09:29:48;2.67;;;1.00;;
67585;SDS011;55785;47.946;20.540;2023-06-04T09:32:27;1.55;;;0.93;;
67585;SDS011;55785;47.946;20.540;2023-06-04T09:34:54;2.70;;;1.00;;
67585;SDS011;55785;47.946;20.540;2023-06-04T09:37:34;3.25;;;1.00;;
67585;SDS011;55785;47.946;20.540;2023-06-04T09:40:02;1.88;;;0.95;;
67585;SDS011;55785;47.946;20.540;2023-06-04T09:42:28;3.75;;;1.17;;
67585;SDS011;55785;47.946;20.540;2023-06-04T09:44:53;1.83;;;1.10;;
67585;SDS011;55785;47.946;20.540;2023-06-04T09:47:19;4.20;;;1.00;;
67585;SDS011;55785;47.946;20.540;2023-06-04T09:49:45;2.40;;;1.05;;
67585;SDS011;55785;47.946;20.540;2023-06-04T09:52:17;2.30;;;1.20;;
67585;SDS011;55785;47.946;20.540;2023-06-04T09:54:45;2.30;;;1.30;;
67585;SDS011;55785;47.946;20.540;2023-06-04T09:57:17;2.03;;;1.17;;
67585;SDS011;55785;47.946;20.540;2023-06-04T09:59:44;4.38;;;1.25;;
67585;SDS011;55785;47.946;20.540;2023-06-04T10:02:11;1.83;;;1.10;;
67585;SDS011;55785;47.946;20.540;2023-06-04T10:04:43;3.85;;;1.00;;
67585;SDS011;55785;47.946;20.540;2023-06-04T10:07:13;3.40;;;1.08;;
67585;SDS011;55785;47.946;20.540;2023-06-04T10:09:43;1.60;;;1.02;;
67585;SDS011;55785;47.946;20.540;2023-06-04T10:12:08;1.40;;;1.00;;
67585;SDS011;55785;47.946;20.540;2023-06-04T10:14:41;1.65;;;0.90;;
67585;SDS011;55785;47.946;20.540;2023-06-04T10:17:13;1.88;;;1.00;;
67585;SDS011;55785;47.946;20.540;2023-06-04T10:19:42;3.10;;;1.40;;
67585;SDS011;55785;47.946;20.540;2023-06-04T10:22:09;2.17;;;1.30;;
67585;SDS011;55785;47.946;20.540;2023-06-04T10:24:35;3.85;;;1.10;;
67585;SDS011;55785;47.946;20.540;2023-06-04T10:27:00;2.58;;;1.10;;
67585;SDS011;55785;47.946;20.540;2023-06-04T10:29:27;2.50;;;1.15;;
67585;SDS011;55785;47.946;20.540;2023-06-04T10:31:55;1.65;;;1.30;;
67585;SDS011;55785;47.946;20.540;2023-06-04T10:34:20;2.58;;;1.17;;
67585;SDS011;55785;47.946;20.540;2023-06-04T10:36:46;3.40;;;1.20;;
67585;SDS011;55785;47.946;20.540;2023-06-04T10:39:11;4.28;;;1.20;;
67585;SDS011;55785;47.946;20.540;2023-06-04T10:41:37;2.22;;;1.10;;
67585;SDS011;55785;47.946;20.540;2023-06-04T10:44:02;3.28;;;1.05;;
67585;SDS011;55785;47.946;20.540;2023-06-04T10:46:37;2.67;;;1.10;;
67585;SDS011;55785;47.946;20.540;2023-06-04T10:49:06;3.30;;;1.30;;
67585;SDS011;55785;47.946;20.540;2023-06-04T10:51:33;1.77;;;1.30;;
67585;SDS011;55785;47.946;20.540;2023-06-04T10:54:01;3.00;;;1.30;;
67585;SDS011;55785;47.946;20.540;2023-06-04T10:56:27;3.50;;;1.13;;
67585;SDS011;55785;47.946;20.540;2023-06-04T10:58:53;3.50;;;1.30;;
67585;SDS011;55785;47.946;20.540;2023-06-04T11:01:28;2.72;;;1.25;;
67585;SDS011;55785;47.946;20.540;2023-06-04T11:03:54;2.38;;;1.20;;
67585;SDS011;55785;47.946;20.540;2023-06-04T11:06:20;2.30;;;1.30;;
67585;SDS011;55785;47.946;20.540;2023-06-04T11:08:47;3.25;;;1.08;;
67585;SDS011;55785;47.946;20.540;2023-06-04T11:11:13;1.83;;;1.20;;
67585;SDS011;55785;47.946;20.540;2023-06-04T11:13:40;2.20;;;1.35;;
67585;SDS011;55785;47.946;20.540;2023-06-04T11:16:15;3.85;;;1.20;;
67585;SDS011;55785;47.946;20.540;2023-06-04T11:18:53;2.17;;;1.30;;
67585;SDS011;55785;47.946;20.540;2023-06-04T11:21:22;2.92;;;1.20;;
67585;SDS011;55785;47.946;20.540;2023-06-04T11:23:48;2.97;;;1.48;;
67585;SDS011;55785;47.946;20.540;2023-06-04T11:26:13;2.55;;;1.60;;
67585;SDS011;55785;47.946;20.540;2023-06-04T11:28:39;2.75;;;1.50;;
67585;SDS011;55785;47.946;20.540;2023-06-04T11:31:04;2.50;;;1.70;;
67585;SDS011;55785;47.946;20.540;2023-06-04T11:33:30;3.40;;;1.80;;
67585;SDS011;55785;47.946;20.540;2023-06-04T11:35:55;3.58;;;1.80;;
67585;SDS011;55785;47.946;20.540;2023-06-04T11:38:21;5.70;;;1.88;;
67585;SDS011;55785;47.946;20.540;2023-06-04T11:40:56;3.75;;;1.80;;
67585;SDS011;55785;47.946;20.540;2023-06-04T11:43:23;2.53;;;1.67;;
67585;SDS011;55785;47.946;20.540;2023-06-04T11:45:48;3.20;;;1.63;;
67585;SDS011;55785;47.946;20.540;2023-06-04T11:48:14;4.53;;;1.70;;
67585;SDS011;55785;47.946;20.540;2023-06-04T11:50:40;4.65;;;2.00;;
67585;SDS011;55785;47.946;20.540;2023-06-04T11:53:05;4.85;;;1.60;;
67585;SDS011;55785;47.946;20.540;2023-06-04T11:55:31;2.80;;;1.52;;
67585;SDS011;55785;47.946;20.540;2023-06-04T11:57:57;4.03;;;1.85;;
67585;SDS011;55785;47.946;20.540;2023-06-04T12:00:23;2.78;;;1.80;;
67585;SDS011;55785;47.946;20.540;2023-06-04T12:02:49;3.25;;;1.60;;
67585;SDS011;55785;47.946;20.540;2023-06-04T12:05:16;2.78;;;1.60;;
67585;SDS011;55785;47.946;20.540;2023-06-04T12:07:42;3.03;;;1.73;;
67585;SDS011;55785;47.946;20.540;2023-06-04T12:10:07;3.13;;;1.80;;
67585;SDS011;55785;47.946;20.540;2023-06-04T12:12:34;3.92;;;1.70;;
67585;SDS011;55785;47.946;20.540;2023-06-04T12:14:59;1.90;;;1.50;;
67585;SDS011;55785;47.946;20.540;2023-06-04T12:17:25;3.28;;;1.50;;
67585;SDS011;55785;47.946;20.540;2023-06-04T12:19:50;2.53;;;1.70;;
67585;SDS011;55785;47.946;20.540;2023-06-04T12:22:16;2.97;;;1.55;;
67585;SDS011;55785;47.946;20.540;2023-06-04T12:24:55;3.42;;;2.20;;
67585;SDS011;55785;47.946;20.540;2023-06-04T12:27:22;2.92;;;1.80;;
67585;SDS011;55785;47.946;20.540;2023-06-04T12:29:55;3.33;;;1.67;;
67585;SDS011;55785;47.946;20.540;2023-06-04T12:32:24;3.50;;;1.80;;
67585;SDS011;55785;47.946;20.540;2023-06-04T12:34:49;3.30;;;1.73;;
67585;SDS011;55785;47.946;20.540;2023-06-04T12:37:14;4.57;;;1.67;;
67585;SDS011;55785;47.946;20.540;2023-06-04T12:39:40;3.53;;;1.55;;
67585;SDS011;55785;47.946;20.540;2023-06-04T12:42:06;2.90;;;1.70;;
67585;SDS011;55785;47.946;20.540;2023-06-04T12:44:32;3.45;;;1.92;;
67585;SDS011;55785;47.946;20.540;2023-06-04T12:46:57;4.05;;;1.70;;
67585;SDS011;55785;47.946;20.540;2023-06-04T12:49:23;3.17;;;1.83;;
67585;SDS011;55785;47.946;20.540;2023-06-04T12:51:48;3.22;;;1.63;;
67585;SDS011;55785;47.946;20.540;2023-06-04T12:54:14;3.03;;;1.67;;
67585;SDS011;55785;47.946;20.540;2023-06-04T12:56:39;2.28;;;1.63;;
67585;SDS011;55785;47.946;20.540;2023-06-04T12:59:05;3.28;;;1.70;;
67585;SDS011;55785;47.946;20.540;2023-06-04T13:01:30;4.00;;;1.80;;
67585;SDS011;55785;47.946;20.540;2023-06-04T13:03:56;2.78;;;1.70;;
67585;SDS011;55785;47.946;20.540;2023-06-04T13:06:21;1.83;;;1.50;;
67585;SDS011;55785;47.946;20.540;2023-06-04T13:08:46;3.50;;;1.60;;
67585;SDS011;55785;47.946;20.540;2023-06-04T13:11:12;2.08;;;1.42;;
67585;SDS011;55785;47.946;20.540;2023-06-04T13:13:37;2.95;;;1.67;;
67585;SDS011;55785;47.946;20.540;2023-06-04T13:16:03;2.58;;;1.80;;
67585;SDS011;55785;47.946;20.540;2023-06-04T13:18:29;2.63;;;1.70;;
67585;SDS011;55785;47.946;20.540;2023-06-04T13:20:54;2.88;;;1.75;;
67585;SDS011;55785;47.946;20.540;2023-06-04T13:23:20;3.83;;;1.70;;
67585;SDS011;55785;47.946;20.540;2023-06-04T13:25:46;2.30;;;1.65;;
67585;SDS011;55785;47.946;20.540;2023-06-04T13:28:12;1.92;;;1.55;;
67585;SDS011;55785;47.946;20.540;2023-06-04T13:30:38;2.40;;;1.70;;
67585;SDS011;55785;47.946;20.540;2023-06-04T13:33:04;3.83;;;1.70;;
67585;SDS011;55785;47.946;20.540;2023-06-04T13:35:29;4.40;;;1.95;;
67585;SDS011;55785;47.946;20.540;2023-06-04T13:37:55;2.40;;;1.55;;
67585;SDS011;55785;47.946;20.540;2023-06-04T13:40:20;2.78;;;1.85;;
67585;SDS011;55785;47.946;20.540;2023-06-04T13:42:45;2.83;;;1.67;;
67585;SDS011;55785;47.946;20.540;2023-06-04T13:45:11;3.58;;;1.85;;
67585;SDS011;55785;47.946;20.540;2023-06-04T13:47:36;4.45;;;1.80;;
67585;SDS011;55785;47.946;20.540;2023-06-04T13:50:02;3.53;;;1.80;;
67585;SDS011;55785;47.946;20.540;2023-06-04T13:52:27;2.97;;;1.60;;
67585;SDS011;55785;47.946;20.540;2023-06-04T13:54:53;2.67;;;1.60;;
67585;SDS011;55785;47.946;20.540;2023-06-04T13:57:18;2.78;;;2.08;;
67585;SDS011;55785;47.946;20.540;2023-06-04T13:59:43;3.63;;;1.63;;
67585;SDS011;55785;47.946;20.540;2023-06-04T14:02:09;3.10;;;1.70;;
67585;SDS011;55785;47.946;20.540;2023-06-04T14:04:34;1.80;;;1.60;;
67585;SDS011;55785;47.946;20.540;2023-06-04T14:06:59;2.55;;;1.80;;
67585;SDS011;55785;47.946;20.540;2023-06-04T14:09:25;2.42;;;1.70;;
67585;SDS011;55785;47.946;20.540;2023-06-04T14:11:50;2.65;;;1.58;;
67585;SDS011;55785;47.946;20.540;2023-06-04T14:14:16;2.55;;;1.63;;
67585;SDS011;55785;47.946;20.540;2023-06-04T14:16:42;2.97;;;1.88;;
67585;SDS011;55785;47.946;20.540;2023-06-04T14:19:08;2.92;;;1.50;;
67585;SDS011;55785;47.946;20.540;2023-06-04T14:21:33;2.78;;;1.65;;
67585;SDS011;55785;47.946;20.540;2023-06-04T14:23:58;4.43;;;1.77;;
67585;SDS011;55785;47.946;20.540;2023-06-04T14:26:24;2.70;;;1.80;;
67585;SDS011;55785;47.946;20.540;2023-06-04T14:28:49;2.40;;;1.50;;
67585;SDS011;55785;47.946;20.540;2023-06-04T14:31:15;2.63;;;1.67;;
67585;SDS011;55785;47.946;20.540;2023-06-04T14:33:40;3.05;;;1.90;;
67585;SDS011;55785;47.946;20.540;2023-06-04T14:36:05;3.35;;;1.70;;
67585;SDS011;55785;47.946;20.540;2023-06-04T14:38:31;2.60;;;1.70;;
67585;SDS011;55785;47.946;20.540;2023-06-04T14:40:56;3.58;;;1.67;;
67585;SDS011;55785;47.946;20.540;2023-06-04T14:43:22;2.58;;;1.58;;
67585;SDS011;55785;47.946;20.540;2023-06-04T14:45:48;2.55;;;1.65;;
67585;SDS011;55785;47.946;20.540;2023-06-04T14:48:13;2.72;;;1.70;;
67585;SDS011;55785;47.946;20.540;2023-06-04T14:50:38;3.50;;;1.70;;
67585;SDS011;55785;47.946;20.540;2023-06-04T14:53:04;3.95;;;1.73;;
67585;SDS011;55785;47.946;20.540;2023-06-04T14:55:29;2.60;;;1.90;;
67585;SDS011;55785;47.946;20.540;2023-06-04T14:57:55;2.22;;;1.67;;
67585;SDS011;55785;47.946;20.540;2023-06-04T15:00:20;4.85;;;1.73;;
67585;SDS011;55785;47.946;20.540;2023-06-04T15:02:45;6.13;;;1.70;;
67585;SDS011;55785;47.946;20.540;2023-06-04T15:05:11;2.83;;;1.58;;
67585;SDS011;55785;47.946;20.540;2023-06-04T15:07:36;3.28;;;1.58;;
67585;SDS011;55785;47.946;20.540;2023-06-04T15:10:02;2.08;;;1.60;;
67585;SDS011;55785;47.946;20.540;2023-06-04T15:12:27;2.78;;;1.73;;
67585;SDS011;55785;47.946;20.540;2023-06-04T15:14:54;2.95;;;1.90;;
67585;SDS011;55785;47.946;20.540;2023-06-04T15:17:20;2.47;;;1.77;;